sensor_id;sensor_type;location;lat;lon;timestamp;P1;durP1;ratioP1;P2;durP2;ratioP2
72864;SDS011;61000;48.120;11.548;2023-06-10T00:01:51;9.98;;;6.63;;
72864;SDS011;61000;48.120;11.548;2023-06-10T00:04:20;6.65;;;5.95;;
72864;SDS011;61000;48.120;11.548;2023-06-10T00:06:47;8.27;;;6.53;;
72864;SDS011;61000;48.120;11.548;2023-06-10T00:09:15;7.15;;;6.50;;
72864;SDS011;61000;48.120;11.548;2023-06-10T00:11:43;8.05;;;6.28;;
72864;SDS011;61000;48.120;11.548;2023-06-10T00:14:10;6.70;;;6.10;;
72864;SDS011;61000;48.120;11.548;2023-06-10T00:16:39;8.63;;;5.90;;
72864;SDS011;61000;48.120;11.548;2023-06-10T00:19:10;6.57;;;5.95;;
72864;SDS011;61000;48.120;11.548;2023-06-10T00:21:39;6.78;;;5.95;;
72864;SDS011;61000;48.120;11.548;2023-06-10T00:24:07;12.30;;;6.97;;
72864;SDS011;61000;48.120;11.548;2023-06-10T00:26:37;6.40;;;5.75;;
72864;SDS011;61000;48.120;11.548;2023-06-10T00:29:04;5.93;;;5.32;;
72864;SDS011;61000;48.120;11.548;2023-06-10T00:31:32;7.03;;;6.15;;
72864;SDS011;61000;48.120;11.548;2023-06-10T00:34:01;7.20;;;6.07;;
72864;SDS011;61000;48.120;11.548;2023-06-10T00:36:30;6.00;;;5.20;;
72864;SDS011;61000;48.120;11.548;2023-06-10T00:38:57;6.10;;;5.47;;
72864;SDS011;61000;48.120;11.548;2023-06-10T00:41:25;7.18;;;5.75;;
72864;SDS011;61000;48.120;11.548;2023-06-10T00:43:52;6.43;;;5.82;;
72864;SDS011;61000;48.120;11.548;2023-06-10T00:46:19;6.82;;;5.93;;
72864;SDS011;61000;48.120;11.548;2023-06-10T00:48:47;6.15;;;5.55;;
72864;SDS011;61000;48.120;11.548;2023-06-10T00:51:16;6.80;;;5.57;;
72864;SDS011;61000;48.120;11.548;2023-06-10T00:53:44;7.30;;;6.20;;
72864;SDS011;61000;48.120;11.548;2023-06-10T00:56:12;6.00;;;5.40;;
72864;SDS011;61000;48.120;11.548;2023-06-10T00:58:40;6.45;;;5.85;;
72864;SDS011;61000;48.120;11.548;2023-06-10T01:01:07;6.30;;;5.70;;
72864;SDS011;61000;48.120;11.548;2023-06-10T01:03:36;7.32;;;6.63;;
72864;SDS011;61000;48.120;11.548;2023-06-10T01:06:06;7.00;;;6.30;;
72864;SDS011;61000;48.120;11.548;2023-06-10T01:08:39;7.00;;;6.22;;
72864;SDS011;61000;48.120;11.548;2023-06-10T01:11:08;8.05;;;7.25;;
72864;SDS011;61000;48.120;11.548;2023-06-10T01:13:41;6.57;;;5.97;;
72864;SDS011;61000;48.120;11.548;2023-06-10T01:16:08;8.43;;;6.78;;
72864;SDS011;61000;48.120;11.548;2023-06-10T01:18:37;7.22;;;6.53;;
72864;SDS011;61000;48.120;11.548;2023-06-10T01:21:04;7.78;;;6.40;;
72864;SDS011;61000;48.120;11.548;2023-06-10T01:23:34;7.45;;;6.75;;
72864;SDS011;61000;48.120;11.548;2023-06-10T01:26:02;7.25;;;6.55;;
72864;SDS011;61000;48.120;11.548;2023-06-10T01:28:33;9.10;;;7.07;;
72864;SDS011;61000;48.120;11.548;2023-06-10T01:31:06;8.00;;;6.63;;
72864;SDS011;61000;48.120;11.548;2023-06-10T01:33:35;7.65;;;6.95;;
72864;SDS011;61000;48.120;11.548;2023-06-10T01:36:03;7.03;;;6.25;;
72864;SDS011;61000;48.120;11.548;2023-06-10T01:38:30;11.65;;;6.90;;
72864;SDS011;61000;48.120;11.548;2023-06-10T01:41:00;8.20;;;6.90;;
72864;SDS011;61000;48.120;11.548;2023-06-10T01:43:31;9.05;;;7.50;;
72864;SDS011;61000;48.120;11.548;2023-06-10T01:45:59;8.38;;;7.38;;
72864;SDS011;61000;48.120;11.548;2023-06-10T01:48:26;9.05;;;6.90;;
72864;SDS011;61000;48.120;11.548;2023-06-10T01:50:53;9.02;;;7.63;;
72864;SDS011;61000;48.120;11.548;2023-06-10T01:53:21;7.72;;;6.93;;
72864;SDS011;61000;48.120;11.548;2023-06-10T01:55:48;9.27;;;7.47;;
72864;SDS011;61000;48.120;11.548;2023-06-10T01:58:17;8.50;;;6.97;;
72864;SDS011;61000;48.120;11.548;2023-06-10T02:00:44;9.60;;;7.07;;
72864;SDS011;61000;48.120;11.548;2023-06-10T02:03:11;8.90;;;7.18;;
72864;SDS011;61000;48.120;11.548;2023-06-10T02:05:38;8.68;;;7.50;;
72864;SDS011;61000;48.120;11.548;2023-06-10T02:08:05;9.88;;;7.13;;
72864;SDS011;61000;48.120;11.548;2023-06-10T02:10:32;7.93;;;7.13;;
72864;SDS011;61000;48.120;11.548;2023-06-10T02:12:59;9.68;;;6.97;;
72864;SDS011;61000;48.120;11.548;2023-06-10T02:15:28;9.05;;;7.25;;
72864;SDS011;61000;48.120;11.548;2023-06-10T02:17:54;8.60;;;7.70;;
72864;SDS011;61000;48.120;11.548;2023-06-10T02:20:23;8.93;;;8.00;;
72864;SDS011;61000;48.120;11.548;2023-06-10T02:22:50;8.63;;;7.65;;
72864;SDS011;61000;48.120;11.548;2023-06-10T02:25:17;11.90;;;8.40;;
72864;SDS011;61000;48.120;11.548;2023-06-10T02:27:43;8.95;;;7.63;;
72864;SDS011;61000;48.120;11.548;2023-06-10T02:30:11;9.25;;;8.25;;
72864;SDS011;61000;48.120;11.548;2023-06-10T02:32:41;11.25;;;8.15;;
72864;SDS011;61000;48.120;11.548;2023-06-10T02:35:14;9.00;;;7.57;;
72864;SDS011;61000;48.120;11.548;2023-06-10T02:37:42;8.38;;;7.57;;
72864;SDS011;61000;48.120;11.548;2023-06-10T02:40:09;8.48;;;7.45;;
72864;SDS011;61000;48.120;11.548;2023-06-10T02:42:38;11.40;;;8.55;;
72864;SDS011;61000;48.120;11.548;2023-06-10T02:45:05;9.25;;;8.27;;
72864;SDS011;61000;48.120;11.548;2023-06-10T02:47:38;8.70;;;7.85;;
72864;SDS011;61000;48.120;11.548;2023-06-10T02:50:08;10.82;;;8.38;;
72864;SDS011;61000;48.120;11.548;2023-06-10T02:52:43;12.23;;;8.52;;
72864;SDS011;61000;48.120;11.548;2023-06-10T02:55:11;8.68;;;7.78;;
72864;SDS011;61000;48.120;11.548;2023-06-10T02:57:41;11.00;;;7.82;;
72864;SDS011;61000;48.120;11.548;2023-06-10T03:00:09;9.18;;;8.02;;
72864;SDS011;61000;48.120;11.548;2023-06-10T03:02:38;11.82;;;8.88;;
72864;SDS011;61000;48.120;11.548;2023-06-10T03:05:08;11.50;;;8.63;;
72864;SDS011;61000;48.120;11.548;2023-06-10T03:07:39;9.95;;;8.85;;
72864;SDS011;61000;48.120;11.548;2023-06-10T03:10:06;11.02;;;8.88;;
72864;SDS011;61000;48.120;11.548;2023-06-10T03:12:36;10.60;;;8.90;;
72864;SDS011;61000;48.120;11.548;2023-06-10T03:15:04;9.73;;;8.48;;
72864;SDS011;61000;48.120;11.548;2023-06-10T03:17:31;9.82;;;8.82;;
72864;SDS011;61000;48.120;11.548;2023-06-10T03:19:59;11.07;;;8.82;;
72864;SDS011;61000;48.120;11.548;2023-06-10T03:22:27;10.65;;;9.05;;
72864;SDS011;61000;48.120;11.548;2023-06-10T03:25:02;11.68;;;9.73;;
72864;SDS011;61000;48.120;11.548;2023-06-10T03:27:30;12.45;;;9.43;;
72864;SDS011;61000;48.120;11.548;2023-06-10T03:30:02;10.65;;;8.70;;
72864;SDS011;61000;48.120;11.548;2023-06-10T03:32:29;10.88;;;8.80;;
72864;SDS011;61000;48.120;11.548;2023-06-10T03:34:56;10.15;;;8.70;;
72864;SDS011;61000;48.120;11.548;2023-06-10T03:40:01;10.30;;;8.60;;
72864;SDS011;61000;48.120;11.548;2023-06-10T03:42:31;11.98;;;9.23;;
72864;SDS011;61000;48.120;11.548;2023-06-10T03:44:58;10.50;;;9.13;;
72864;SDS011;61000;48.120;11.548;2023-06-10T03:47:29;10.20;;;9.10;;
72864;SDS011;61000;48.120;11.548;2023-06-10T03:50:02;10.50;;;9.18;;
72864;SDS011;61000;48.120;11.548;2023-06-10T03:52:30;10.80;;;9.10;;
72864;SDS011;61000;48.120;11.548;2023-06-10T03:54:58;10.90;;;9.43;;
72864;SDS011;61000;48.120;11.548;2023-06-10T03:57:26;10.45;;;9.35;;
72864;SDS011;61000;48.120;11.548;2023-06-10T03:59:53;10.27;;;9.18;;
72864;SDS011;61000;48.120;11.548;2023-06-10T04:02:21;10.77;;;9.52;;
72864;SDS011;61000;48.120;11.548;2023-06-10T04:04:48;9.18;;;8.27;;
72864;SDS011;61000;48.120;11.548;2023-06-10T04:07:16;10.73;;;9.35;;
72864;SDS011;61000;48.120;11.548;2023-06-10T04:09:44;11.15;;;9.27;;
72864;SDS011;61000;48.120;11.548;2023-06-10T04:12:11;10.90;;;9.70;;
72864;SDS011;61000;48.120;11.548;2023-06-10T04:14:40;11.45;;;9.25;;
72864;SDS011;61000;48.120;11.548;2023-06-10T04:17:10;11.52;;;9.13;;
72864;SDS011;61000;48.120;11.548;2023-06-10T04:19:37;10.57;;;9.40;;
72864;SDS011;61000;48.120;11.548;2023-06-10T04:22:05;10.18;;;9.07;;
72864;SDS011;61000;48.120;11.548;2023-06-10T04:24:32;11.75;;;9.00;;
72864;SDS011;61000;48.120;11.548;2023-06-10T04:26:59;13.00;;;9.57;;
72864;SDS011;61000;48.120;11.548;2023-06-10T04:29:27;12.05;;;10.15;;
72864;SDS011;61000;48.120;11.548;2023-06-10T04:31:55;13.98;;;10.30;;
72864;SDS011;61000;48.120;11.548;2023-06-10T04:34:22;10.77;;;9.55;;
72864;SDS011;61000;48.120;11.548;2023-06-10T04:36:52;14.73;;;10.73;;
72864;SDS011;61000;48.120;11.548;2023-06-10T04:39:19;12.98;;;10.15;;
72864;SDS011;61000;48.120;11.548;2023-06-10T04:41:46;11.45;;;9.60;;
72864;SDS011;61000;48.120;11.548;2023-06-10T04:44:13;12.40;;;10.30;;
72864;SDS011;61000;48.120;11.548;2023-06-10T04:46:41;12.70;;;10.23;;
72864;SDS011;61000;48.120;11.548;2023-06-10T04:49:10;11.60;;;10.40;;
72864;SDS011;61000;48.120;11.548;2023-06-10T04:51:40;13.55;;;10.48;;
72864;SDS011;61000;48.120;11.548;2023-06-10T04:54:07;11.80;;;10.27;;
72864;SDS011;61000;48.120;11.548;2023-06-10T04:56:34;12.07;;;9.25;;
72864;SDS011;61000;48.120;11.548;2023-06-10T04:59:02;12.13;;;10.57;;
72864;SDS011;61000;48.120;11.548;2023-06-10T05:01:28;11.73;;;9.98;;
72864;SDS011;61000;48.120;11.548;2023-06-10T05:03:55;13.10;;;10.20;;
72864;SDS011;61000;48.120;11.548;2023-06-10T05:06:24;15.95;;;10.98;;
72864;SDS011;61000;48.120;11.548;2023-06-10T05:08:50;11.70;;;9.57;;
72864;SDS011;61000;48.120;11.548;2023-06-10T05:11:17;15.65;;;10.05;;
72864;SDS011;61000;48.120;11.548;2023-06-10T05:13:44;13.23;;;10.43;;
72864;SDS011;61000;48.120;11.548;2023-06-10T05:16:11;16.42;;;11.38;;
72864;SDS011;61000;48.120;11.548;2023-06-10T05:18:40;13.98;;;9.80;;
72864;SDS011;61000;48.120;11.548;2023-06-10T05:21:07;11.75;;;10.00;;
72864;SDS011;61000;48.120;11.548;2023-06-10T05:23:35;13.88;;;10.80;;
72864;SDS011;61000;48.120;11.548;2023-06-10T05:26:02;12.57;;;10.90;;
72864;SDS011;61000;48.120;11.548;2023-06-10T05:28:29;14.13;;;10.02;;
72864;SDS011;61000;48.120;11.548;2023-06-10T05:30:56;12.07;;;9.98;;
72864;SDS011;61000;48.120;11.548;2023-06-10T05:33:23;12.70;;;10.55;;
72864;SDS011;61000;48.120;11.548;2023-06-10T05:35:50;11.60;;;10.02;;
72864;SDS011;61000;48.120;11.548;2023-06-10T05:38:16;11.68;;;10.32;;
72864;SDS011;61000;48.120;11.548;2023-06-10T05:40:45;14.73;;;10.57;;
72864;SDS011;61000;48.120;11.548;2023-06-10T05:43:12;15.70;;;11.05;;
72864;SDS011;61000;48.120;11.548;2023-06-10T05:45:41;14.52;;;10.77;;
72864;SDS011;61000;48.120;11.548;2023-06-10T05:48:08;14.35;;;10.80;;
72864;SDS011;61000;48.120;11.548;2023-06-10T05:50:35;13.88;;;11.25;;
72864;SDS011;61000;48.120;11.548;2023-06-10T05:53:04;14.52;;;10.88;;
72864;SDS011;61000;48.120;11.548;2023-06-10T05:55:32;12.48;;;11.10;;
72864;SDS011;61000;48.120;11.548;2023-06-10T05:58:00;14.10;;;10.32;;
72864;SDS011;61000;48.120;11.548;2023-06-10T06:00:27;15.95;;;10.88;;
72864;SDS011;61000;48.120;11.548;2023-06-10T06:02:54;14.05;;;9.73;;
72864;SDS011;61000;48.120;11.548;2023-06-10T06:05:22;13.85;;;10.48;;
72864;SDS011;61000;48.120;11.548;2023-06-10T06:07:49;14.65;;;10.77;;
72864;SDS011;61000;48.120;11.548;2023-06-10T06:10:16;11.90;;;10.20;;
72864;SDS011;61000;48.120;11.548;2023-06-10T06:12:44;13.35;;;9.95;;
72864;SDS011;61000;48.120;11.548;2023-06-10T06:15:15;13.50;;;10.02;;
72864;SDS011;61000;48.120;11.548;2023-06-10T06:17:42;11.98;;;9.82;;
72864;SDS011;61000;48.120;11.548;2023-06-10T06:20:09;15.77;;;10.88;;
72864;SDS011;61000;48.120;11.548;2023-06-10T06:22:36;12.02;;;9.55;;
72864;SDS011;61000;48.120;11.548;2023-06-10T06:25:04;13.95;;;10.52;;
72864;SDS011;61000;48.120;11.548;2023-06-10T06:27:31;13.30;;;11.00;;
72864;SDS011;61000;48.120;11.548;2023-06-10T06:29:58;12.80;;;10.85;;
72864;SDS011;61000;48.120;11.548;2023-06-10T06:32:26;9.82;;;8.82;;
72864;SDS011;61000;48.120;11.548;2023-06-10T06:34:53;13.35;;;9.68;;
72864;SDS011;61000;48.120;11.548;2023-06-10T06:37:21;12.20;;;9.02;;
72864;SDS011;61000;48.120;11.548;2023-06-10T06:39:50;13.60;;;9.70;;
72864;SDS011;61000;48.120;11.548;2023-06-10T06:42:19;11.93;;;9.63;;
72864;SDS011;61000;48.120;11.548;2023-06-10T06:44:57;10.18;;;8.38;;
72864;SDS011;61000;48.120;11.548;2023-06-10T06:47:24;12.45;;;9.85;;
72864;SDS011;61000;48.120;11.548;2023-06-10T06:49:53;11.48;;;9.10;;
72864;SDS011;61000;48.120;11.548;2023-06-10T06:52:19;11.85;;;9.18;;
72864;SDS011;61000;48.120;11.548;2023-06-10T06:54:47;14.18;;;9.45;;
72864;SDS011;61000;48.120;11.548;2023-06-10T06:57:14;12.07;;;8.55;;
72864;SDS011;61000;48.120;11.548;2023-06-10T06:59:41;10.95;;;9.27;;
72864;SDS011;61000;48.120;11.548;2023-06-10T07:02:08;14.27;;;8.68;;
72864;SDS011;61000;48.120;11.548;2023-06-10T07:04:35;10.23;;;8.77;;
72864;SDS011;61000;48.120;11.548;2023-06-10T07:07:04;10.52;;;8.52;;
72864;SDS011;61000;48.120;11.548;2023-06-10T07:09:33;15.65;;;9.93;;
72864;SDS011;61000;48.120;11.548;2023-06-10T07:12:00;10.90;;;8.57;;
72864;SDS011;61000;48.120;11.548;2023-06-10T07:14:27;11.05;;;8.95;;
72864;SDS011;61000;48.120;11.548;2023-06-10T07:16:54;9.98;;;8.18;;
72864;SDS011;61000;48.120;11.548;2023-06-10T07:19:20;10.27;;;8.18;;
72864;SDS011;61000;48.120;11.548;2023-06-10T07:21:47;9.07;;;8.18;;
72864;SDS011;61000;48.120;11.548;2023-06-10T07:24:16;9.68;;;8.00;;
72864;SDS011;61000;48.120;11.548;2023-06-10T07:26:45;7.97;;;7.18;;
72864;SDS011;61000;48.120;11.548;2023-06-10T07:29:12;7.80;;;7.00;;
72864;SDS011;61000;48.120;11.548;2023-06-10T07:31:39;8.63;;;7.50;;
72864;SDS011;61000;48.120;11.548;2023-06-10T07:34:07;9.57;;;7.78;;
72864;SDS011;61000;48.120;11.548;2023-06-10T07:36:34;11.27;;;8.57;;
72864;SDS011;61000;48.120;11.548;2023-06-10T07:39:01;9.25;;;8.05;;
72864;SDS011;61000;48.120;11.548;2023-06-10T07:41:29;9.52;;;8.02;;
72864;SDS011;61000;48.120;11.548;2023-06-10T07:43:56;8.73;;;7.60;;
72864;SDS011;61000;48.120;11.548;2023-06-10T07:46:23;7.57;;;6.78;;
72864;SDS011;61000;48.120;11.548;2023-06-10T07:48:53;9.93;;;7.05;;
72864;SDS011;61000;48.120;11.548;2023-06-10T07:51:20;9.15;;;7.45;;
72864;SDS011;61000;48.120;11.548;2023-06-10T07:53:47;10.45;;;6.85;;
72864;SDS011;61000;48.120;11.548;2023-06-10T07:56:14;9.07;;;6.80;;
72864;SDS011;61000;48.120;11.548;2023-06-10T07:58:42;7.85;;;6.93;;
72864;SDS011;61000;48.120;11.548;2023-06-10T08:01:09;7.43;;;6.45;;
72864;SDS011;61000;48.120;11.548;2023-06-10T08:03:36;7.93;;;6.80;;
72864;SDS011;61000;48.120;11.548;2023-06-10T08:06:03;10.35;;;7.53;;
72864;SDS011;61000;48.120;11.548;2023-06-10T08:08:30;9.10;;;7.07;;
72864;SDS011;61000;48.120;11.548;2023-06-10T08:10:57;9.20;;;7.63;;
72864;SDS011;61000;48.120;11.548;2023-06-10T08:13:24;8.63;;;7.30;;
72864;SDS011;61000;48.120;11.548;2023-06-10T08:15:52;8.48;;;6.97;;
72864;SDS011;61000;48.120;11.548;2023-06-10T08:18:20;7.60;;;6.82;;
72864;SDS011;61000;48.120;11.548;2023-06-10T08:20:47;8.43;;;6.85;;
72864;SDS011;61000;48.120;11.548;2023-06-10T08:23:14;7.28;;;6.57;;
72864;SDS011;61000;48.120;11.548;2023-06-10T08:25:41;7.75;;;6.30;;
72864;SDS011;61000;48.120;11.548;2023-06-10T08:28:08;8.77;;;6.13;;
72864;SDS011;61000;48.120;11.548;2023-06-10T08:30:35;6.70;;;6.10;;
72864;SDS011;61000;48.120;11.548;2023-06-10T08:33:04;6.55;;;5.95;;
72864;SDS011;61000;48.120;11.548;2023-06-10T08:35:31;7.53;;;5.85;;
72864;SDS011;61000;48.120;11.548;2023-06-10T08:37:58;7.40;;;5.68;;
72864;SDS011;61000;48.120;11.548;2023-06-10T08:40:24;9.20;;;6.25;;
72864;SDS011;61000;48.120;11.548;2023-06-10T08:42:53;7.78;;;5.57;;
72864;SDS011;61000;48.120;11.548;2023-06-10T08:45:27;7.15;;;6.15;;
72864;SDS011;61000;48.120;11.548;2023-06-10T08:47:57;6.50;;;5.90;;
72864;SDS011;61000;48.120;11.548;2023-06-10T08:50:26;7.22;;;5.97;;
72864;SDS011;61000;48.120;11.548;2023-06-10T08:52:57;7.95;;;6.40;;
72864;SDS011;61000;48.120;11.548;2023-06-10T08:55:27;6.85;;;6.13;;
72864;SDS011;61000;48.120;11.548;2023-06-10T08:57:56;6.63;;;5.63;;
72864;SDS011;61000;48.120;11.548;2023-06-10T09:00:25;6.28;;;5.55;;
72864;SDS011;61000;48.120;11.548;2023-06-10T09:02:53;6.20;;;5.60;;
72864;SDS011;61000;48.120;11.548;2023-06-10T09:05:20;5.90;;;5.30;;
72864;SDS011;61000;48.120;11.548;2023-06-10T09:07:49;6.88;;;5.30;;
72864;SDS011;61000;48.120;11.548;2023-06-10T09:10:18;6.22;;;5.63;;
72864;SDS011;61000;48.120;11.548;2023-06-10T09:12:45;5.28;;;4.78;;
72864;SDS011;61000;48.120;11.548;2023-06-10T09:15:11;6.18;;;5.57;;
72864;SDS011;61000;48.120;11.548;2023-06-10T09:17:39;5.40;;;4.75;;
72864;SDS011;61000;48.120;11.548;2023-06-10T09:20:07;7.13;;;5.05;;
72864;SDS011;61000;48.120;11.548;2023-06-10T09:22:35;6.53;;;4.85;;
72864;SDS011;61000;48.120;11.548;2023-06-10T09:25:03;5.60;;;4.75;;
72864;SDS011;61000;48.120;11.548;2023-06-10T09:27:33;8.15;;;5.13;;
72864;SDS011;61000;48.120;11.548;2023-06-10T09:30:23;6.03;;;5.50;;
72864;SDS011;61000;48.120;11.548;2023-06-10T09:32:52;5.50;;;4.70;;
72864;SDS011;61000;48.120;11.548;2023-06-10T09:35:21;5.28;;;4.78;;
72864;SDS011;61000;48.120;11.548;2023-06-10T09:37:49;5.68;;;5.18;;
72864;SDS011;61000;48.120;11.548;2023-06-10T09:40:19;7.47;;;4.43;;
72864;SDS011;61000;48.120;11.548;2023-06-10T09:42:46;4.22;;;3.92;;
72864;SDS011;61000;48.120;11.548;2023-06-10T09:45:20;4.32;;;3.95;;
72864;SDS011;61000;48.120;11.548;2023-06-10T09:47:51;4.90;;;4.50;;
72864;SDS011;61000;48.120;11.548;2023-06-10T09:50:18;5.07;;;4.57;;
72864;SDS011;61000;48.120;11.548;2023-06-10T09:52:46;4.03;;;3.70;;
72864;SDS011;61000;48.120;11.548;2023-06-10T09:55:13;4.25;;;3.90;;
72864;SDS011;61000;48.120;11.548;2023-06-10T09:57:42;4.53;;;4.13;;
72864;SDS011;61000;48.120;11.548;2023-06-10T10:00:13;4.72;;;4.32;;
72864;SDS011;61000;48.120;11.548;2023-06-10T10:02:47;3.97;;;3.60;;
72864;SDS011;61000;48.120;11.548;2023-06-10T10:05:15;4.90;;;3.72;;
72864;SDS011;61000;48.120;11.548;2023-06-10T10:07:42;3.78;;;3.10;;
72864;SDS011;61000;48.120;11.548;2023-06-10T10:10:10;3.63;;;3.22;;
72864;SDS011;61000;48.120;11.548;2023-06-10T10:12:38;3.88;;;3.47;;
72864;SDS011;61000;48.120;11.548;2023-06-10T10:15:08;3.60;;;3.30;;
72864;SDS011;61000;48.120;11.548;2023-06-10T10:17:36;3.30;;;3.10;;
72864;SDS011;61000;48.120;11.548;2023-06-10T10:20:05;4.03;;;3.72;;
72864;SDS011;61000;48.120;11.548;2023-06-10T10:22:35;3.20;;;2.92;;
72864;SDS011;61000;48.120;11.548;2023-06-10T10:25:05;3.08;;;2.85;;
72864;SDS011;61000;48.120;11.548;2023-06-10T10:27:35;5.85;;;3.10;;
72864;SDS011;61000;48.120;11.548;2023-06-10T10:30:03;3.28;;;3.05;;
72864;SDS011;61000;48.120;11.548;2023-06-10T10:32:37;2.85;;;2.55;;
72864;SDS011;61000;48.120;11.548;2023-06-10T10:35:07;3.25;;;3.05;;
72864;SDS011;61000;48.120;11.548;2023-06-10T10:37:35;5.93;;;2.75;;
72864;SDS011;61000;48.120;11.548;2023-06-10T10:40:02;3.72;;;3.35;;
72864;SDS011;61000;48.120;11.548;2023-06-10T10:42:30;4.35;;;3.25;;
72864;SDS011;61000;48.120;11.548;2023-06-10T10:44:58;3.47;;;3.08;;
72864;SDS011;61000;48.120;11.548;2023-06-10T10:47:26;3.25;;;2.95;;
72864;SDS011;61000;48.120;11.548;2023-06-10T10:49:56;3.38;;;3.08;;
72864;SDS011;61000;48.120;11.548;2023-06-10T10:52:25;4.72;;;3.33;;
72864;SDS011;61000;48.120;11.548;2023-06-10T10:54:53;5.55;;;3.10;;
72864;SDS011;61000;48.120;11.548;2023-06-10T10:57:21;3.80;;;3.50;;
72864;SDS011;61000;48.120;11.548;2023-06-10T10:59:52;3.95;;;3.58;;
72864;SDS011;61000;48.120;11.548;2023-06-10T11:02:32;4.90;;;4.30;;
72864;SDS011;61000;48.120;11.548;2023-06-10T11:05:02;3.47;;;3.17;;
72864;SDS011;61000;48.120;11.548;2023-06-10T11:07:30;4.05;;;3.70;;
72864;SDS011;61000;48.120;11.548;2023-06-10T11:09:57;3.88;;;2.70;;
72864;SDS011;61000;48.120;11.548;2023-06-10T11:12:25;4.43;;;3.55;;
72864;SDS011;61000;48.120;11.548;2023-06-10T11:14:55;4.47;;;3.58;;
72864;SDS011;61000;48.120;11.548;2023-06-10T11:17:23;5.65;;;3.67;;
72864;SDS011;61000;48.120;11.548;2023-06-10T11:19:50;4.00;;;3.60;;
72864;SDS011;61000;48.120;11.548;2023-06-10T11:22:18;3.65;;;3.15;;
72864;SDS011;61000;48.120;11.548;2023-06-10T11:24:49;3.55;;;3.22;;
72864;SDS011;61000;48.120;11.548;2023-06-10T11:27:20;3.95;;;3.53;;
72864;SDS011;61000;48.120;11.548;2023-06-10T11:32:33;3.75;;;3.45;;
72864;SDS011;61000;48.120;11.548;2023-06-10T11:35:02;3.72;;;3.03;;
72864;SDS011;61000;48.120;11.548;2023-06-10T11:37:31;3.97;;;3.58;;
72864;SDS011;61000;48.120;11.548;2023-06-10T11:39:58;5.95;;;3.30;;
72864;SDS011;61000;48.120;11.548;2023-06-10T11:42:25;4.63;;;3.38;;
72864;SDS011;61000;48.120;11.548;2023-06-10T11:44:53;4.22;;;3.67;;
72864;SDS011;61000;48.120;11.548;2023-06-10T11:47:20;3.60;;;3.30;;
72864;SDS011;61000;48.120;11.548;2023-06-10T11:49:55;4.22;;;3.35;;
72864;SDS011;61000;48.120;11.548;2023-06-10T11:52:25;4.50;;;3.65;;
72864;SDS011;61000;48.120;11.548;2023-06-10T11:54:55;3.75;;;3.45;;
72864;SDS011;61000;48.120;11.548;2023-06-10T11:57:22;3.83;;;3.53;;
72864;SDS011;61000;48.120;11.548;2023-06-10T11:59:49;3.95;;;3.15;;
72864;SDS011;61000;48.120;11.548;2023-06-10T12:02:16;3.47;;;3.15;;
72864;SDS011;61000;48.120;11.548;2023-06-10T12:04:45;4.38;;;3.20;;
72864;SDS011;61000;48.120;11.548;2023-06-10T12:07:16;2.90;;;2.60;;
72864;SDS011;61000;48.120;11.548;2023-06-10T12:09:44;3.03;;;2.72;;
72864;SDS011;61000;48.120;11.548;2023-06-10T12:12:12;3.17;;;2.88;;
72864;SDS011;61000;48.120;11.548;2023-06-10T12:14:55;3.15;;;2.85;;
72864;SDS011;61000;48.120;11.548;2023-06-10T12:17:23;3.40;;;3.10;;
72864;SDS011;61000;48.120;11.548;2023-06-10T12:20:02;3.10;;;2.80;;
72864;SDS011;61000;48.120;11.548;2023-06-10T12:22:35;2.95;;;2.65;;
72864;SDS011;61000;48.120;11.548;2023-06-10T12:25:03;5.45;;;2.95;;
72864;SDS011;61000;48.120;11.548;2023-06-10T12:27:34;3.08;;;2.88;;
72864;SDS011;61000;48.120;11.548;2023-06-10T12:30:02;3.72;;;2.60;;
72864;SDS011;61000;48.120;11.548;2023-06-10T12:32:38;4.82;;;2.70;;
72864;SDS011;61000;48.120;11.548;2023-06-10T12:35:06;3.30;;;3.00;;
72864;SDS011;61000;48.120;11.548;2023-06-10T12:37:34;2.30;;;2.15;;
72864;SDS011;61000;48.120;11.548;2023-06-10T12:40:02;2.58;;;2.38;;
72864;SDS011;61000;48.120;11.548;2023-06-10T12:42:31;2.63;;;2.42;;
72864;SDS011;61000;48.120;11.548;2023-06-10T12:45:00;2.90;;;2.30;;
72864;SDS011;61000;48.120;11.548;2023-06-10T12:47:30;2.42;;;2.22;;
72864;SDS011;61000;48.120;11.548;2023-06-10T12:50:00;3.55;;;2.30;;
72864;SDS011;61000;48.120;11.548;2023-06-10T12:52:28;2.90;;;2.70;;
72864;SDS011;61000;48.120;11.548;2023-06-10T12:54:55;2.65;;;2.45;;
72864;SDS011;61000;48.120;11.548;2023-06-10T12:57:22;2.75;;;2.55;;
72864;SDS011;61000;48.120;11.548;2023-06-10T12:59:49;3.63;;;2.17;;
72864;SDS011;61000;48.120;11.548;2023-06-10T13:02:20;2.15;;;2.03;;
72864;SDS011;61000;48.120;11.548;2023-06-10T13:04:49;2.80;;;2.30;;
72864;SDS011;61000;48.120;11.548;2023-06-10T13:07:16;2.78;;;2.47;;
72864;SDS011;61000;48.120;11.548;2023-06-10T13:09:43;3.50;;;2.92;;
72864;SDS011;61000;48.120;11.548;2023-06-10T13:12:10;3.97;;;3.65;;
72864;SDS011;61000;48.120;11.548;2023-06-10T13:14:37;4.03;;;3.67;;
72864;SDS011;61000;48.120;11.548;2023-06-10T13:17:04;3.67;;;3.38;;
72864;SDS011;61000;48.120;11.548;2023-06-10T13:19:33;4.43;;;4.03;;
72864;SDS011;61000;48.120;11.548;2023-06-10T13:22:00;3.67;;;3.28;;
72864;SDS011;61000;48.120;11.548;2023-06-10T13:24:27;5.57;;;4.18;;
72864;SDS011;61000;48.120;11.548;2023-06-10T13:26:54;3.88;;;3.45;;
72864;SDS011;61000;48.120;11.548;2023-06-10T13:29:21;4.93;;;4.20;;
72864;SDS011;61000;48.120;11.548;2023-06-10T13:31:48;4.05;;;3.60;;
72864;SDS011;61000;48.120;11.548;2023-06-10T13:34:15;5.28;;;3.75;;
72864;SDS011;61000;48.120;11.548;2023-06-10T13:36:46;5.43;;;3.55;;
72864;SDS011;61000;48.120;11.548;2023-06-10T13:39:13;7.47;;;3.75;;
72864;SDS011;61000;48.120;11.548;2023-06-10T13:41:40;5.05;;;4.00;;
72864;SDS011;61000;48.120;11.548;2023-06-10T13:44:07;4.20;;;3.80;;
72864;SDS011;61000;48.120;11.548;2023-06-10T13:46:34;3.60;;;3.30;;
72864;SDS011;61000;48.120;11.548;2023-06-10T13:49:01;4.07;;;3.67;;
72864;SDS011;61000;48.120;11.548;2023-06-10T13:51:28;6.68;;;4.00;;
72864;SDS011;61000;48.120;11.548;2023-06-10T13:53:56;3.38;;;3.05;;
72864;SDS011;61000;48.120;11.548;2023-06-10T13:56:23;3.60;;;3.30;;
72864;SDS011;61000;48.120;11.548;2023-06-10T13:58:50;4.15;;;3.15;;
72864;SDS011;61000;48.120;11.548;2023-06-10T14:01:17;5.53;;;3.28;;
72864;SDS011;61000;48.120;11.548;2023-06-10T14:03:44;4.85;;;2.95;;
72864;SDS011;61000;48.120;11.548;2023-06-10T14:06:22;3.22;;;2.92;;
72864;SDS011;61000;48.120;11.548;2023-06-10T14:08:49;2.97;;;2.78;;
72864;SDS011;61000;48.120;11.548;2023-06-10T14:11:18;3.30;;;2.70;;
72864;SDS011;61000;48.120;11.548;2023-06-10T14:13:44;3.20;;;2.90;;
72864;SDS011;61000;48.120;11.548;2023-06-10T14:16:11;6.30;;;3.10;;
72864;SDS011;61000;48.120;11.548;2023-06-10T14:18:38;2.47;;;2.28;;
72864;SDS011;61000;48.120;11.548;2023-06-10T14:21:05;4.05;;;2.50;;
72864;SDS011;61000;48.120;11.548;2023-06-10T14:23:32;3.10;;;2.80;;
72864;SDS011;61000;48.120;11.548;2023-06-10T14:25:59;4.07;;;2.80;;
72864;SDS011;61000;48.120;11.548;2023-06-10T14:28:28;3.45;;;2.65;;
72864;SDS011;61000;48.120;11.548;2023-06-10T14:30:55;2.80;;;2.58;;
72864;SDS011;61000;48.120;11.548;2023-06-10T14:33:23;3.55;;;2.85;;
72864;SDS011;61000;48.120;11.548;2023-06-10T14:35:49;3.63;;;2.70;;
72864;SDS011;61000;48.120;11.548;2023-06-10T14:38:16;3.00;;;2.80;;
72864;SDS011;61000;48.120;11.548;2023-06-10T14:40:44;5.85;;;3.15;;